Time;durP1;ratioP1;P1;durP2;ratioP2;P2;SDS_P1;SDS_P2;PMS_P1;PMS_P2;Temp;Humidity;BMP_temperature;BMP_pressure;BME280_temperature;BME280_humidity;BME280_pressure;Samples;Min_cycle;Max_cycle;Signal;HPM_P1;HPM_P2
2022/06/22 00:02:14;;;;;;;14.33;9.00;;;13.00;99.90;;;;;;4854433;29;20041;-81
2022/06/22 00:04:52;;;;;;;12.03;8.87;;;12.90;99.90;;;;;;4863967;29;20053;-81
2022/06/22 00:07:24;;;;;;;11.63;8.67;;;12.90;99.90;;;;;;4852344;29;20036;-81
2022/06/22 00:10:04;;;;;;;13.23;8.33;;;12.80;99.90;;;;;;4863265;29;20070;-81
2022/06/22 00:12:31;;;;;;;9.70;8.23;;;12.80;99.90;;;;;;4869031;29;20472;-81
2022/06/22 00:15:00;;;;;;;10.67;8.37;;;12.70;99.90;;;;;;4885430;29;20109;-81
2022/06/22 00:17:38;;;;;;;10.60;7.87;;;12.70;99.90;;;;;;4862584;29;20059;-81
2022/06/22 00:20:15;;;;;;;12.90;8.87;;;12.60;99.90;;;;;;4873160;29;20068;-81
2022/06/22 00:22:55;;;;;;;14.43;8.83;;;12.60;99.90;;;;;;4851148;29;20132;-81
2022/06/22 00:25:31;;;;;;;10.93;8.77;;;12.50;99.90;;;;;;4868167;29;20047;-81
2022/06/22 00:28:33;;;;;;;12.37;8.80;;;12.40;99.90;;;;;;4829265;29;20113;-81
2022/06/22 00:31:15;;;;;;;10.50;8.27;;;12.40;99.90;;;;;;4855674;29;20046;-81
2022/06/22 00:34:00;;;;;;;9.57;6.77;;;12.40;99.90;;;;;;4852931;29;20045;-81
2022/06/22 00:36:32;;;;;;;9.30;7.30;;;12.30;99.90;;;;;;4834710;29;20051;-82
2022/06/22 00:39:15;;;;;;;14.55;9.00;;;12.20;99.90;;;;;;4861233;29;20045;-81
2022/06/22 00:41:56;;;;;;;12.63;8.60;;;12.20;99.90;;;;;;4850761;29;20037;-82
2022/06/22 00:44:27;;;;;;;12.98;9.32;;;12.20;99.90;;;;;;4863253;29;20105;-82
2022/06/22 00:47:07;;;;;;;9.70;7.40;;;12.20;99.90;;;;;;4857801;29;20700;-81
2022/06/22 00:49:35;;;;;;;13.47;8.67;;;12.10;99.90;;;;;;4858243;29;20056;-82
2022/06/22 00:52:05;;;;;;;11.10;8.47;;;12.10;99.90;;;;;;4872415;29;20075;-81
2022/06/22 00:54:33;;;;;;;16.63;10.07;;;12.10;99.90;;;;;;4847758;29;20040;-81
2022/06/22 00:57:09;;;;;;;16.43;10.07;;;12.10;99.90;;;;;;4869205;29;20056;-81
2022/06/22 00:59:58;;;;;;;12.50;9.37;;;11.90;99.90;;;;;;4865825;29;20395;-81
2022/06/22 01:02:52;;;;;;;13.87;9.40;;;11.70;99.90;;;;;;4864176;29;20059;-81
2022/06/22 01:05:53;;;;;;;13.00;8.90;;;11.60;99.90;;;;;;4875648;29;20052;-81
2022/06/22 01:08:39;;;;;;;14.07;9.50;;;11.60;99.90;;;;;;4819098;29;20054;-81
2022/06/22 01:15:04;;;;;;;13.73;9.13;;;11.70;99.90;;;;;;4871165;29;20464;-81
2022/06/22 01:17:45;;;;;;;9.23;8.10;;;11.70;99.90;;;;;;4824953;29;20471;-81
2022/06/22 01:20:21;;;;;;;8.73;6.63;;;11.80;99.90;;;;;;4857839;29;20049;-81
2022/06/22 01:23:07;;;;;;;11.10;7.90;;;11.60;99.90;;;;;;4840135;29;20297;-81
2022/06/22 01:26:03;;;;;;;9.90;8.10;;;11.60;99.90;;;;;;4862837;29;20044;-81
2022/06/22 01:28:29;;;;;;;11.43;8.43;;;11.60;99.90;;;;;;4856976;29;20677;-81
2022/06/22 01:31:02;;;;;;;11.80;8.57;;;11.60;99.90;;;;;;4849340;29;20052;-81
2022/06/22 01:33:34;;;;;;;11.93;8.73;;;11.50;99.90;;;;;;4854825;29;20041;-81
2022/06/22 01:36:26;;;;;;;10.27;8.23;;;11.50;99.90;;;;;;4840141;29;20414;-81
2022/06/22 01:38:53;;;;;;;10.65;8.80;;;11.50;99.90;;;;;;4866443;29;20139;-81
2022/06/22 01:41:44;;;;;;;10.53;8.13;;;11.40;99.90;;;;;;4855929;29;20033;-81
2022/06/22 01:44:38;;;;;;;12.33;9.30;;;11.40;99.90;;;;;;4861761;29;20056;-81
2022/06/22 01:47:29;;;;;;;11.97;8.70;;;11.30;99.90;;;;;;4850113;29;20041;-81
2022/06/22 01:50:10;;;;;;;10.80;7.70;;;11.30;99.90;;;;;;4854923;29;20045;-81
2022/06/22 01:53:04;;;;;;;11.40;7.87;;;11.30;99.90;;;;;;4858476;29;20047;-81
2022/06/22 01:55:55;;;;;;;10.53;8.77;;;11.20;99.90;;;;;;4856921;29;20136;-81
2022/06/22 01:58:21;;;;;;;12.43;8.80;;;11.10;99.90;;;;;;4878485;29;20089;-81
2022/06/22 02:00:51;;;;;;;12.07;8.80;;;11.10;99.90;;;;;;4846916;29;20073;-81
2022/06/22 02:03:22;;;;;;;11.47;8.83;;;11.10;99.90;;;;;;4844970;29;20531;-81
2022/06/22 02:05:56;;;;;;;11.32;8.50;;;11.00;99.90;;;;;;4873842;29;20048;-81
2022/06/22 02:08:32;;;;;;;13.03;9.00;;;11.00;99.90;;;;;;4847058;29;20049;-81
2022/06/22 02:11:12;;;;;;;12.83;9.70;;;11.00;99.90;;;;;;4869034;29;20124;-81
2022/06/22 02:13:52;;;;;;;13.33;9.73;;;11.00;99.90;;;;;;4847530;29;20495;-81
2022/06/22 02:16:24;;;;;;;14.80;9.60;;;10.80;99.90;;;;;;4843582;29;20084;-81
2022/06/22 02:18:57;;;;;;;12.07;8.93;;;10.70;99.90;;;;;;4877413;29;20483;-81
2022/06/22 02:21:26;;;;;;;14.00;9.33;;;10.70;99.90;;;;;;4857657;29;20058;-81
2022/06/22 02:24:05;;;;;;;17.23;9.73;;;10.60;99.90;;;;;;4864456;29;20045;-81
2022/06/22 02:26:42;;;;;;;12.70;10.07;;;10.60;99.90;;;;;;4884106;29;20364;-81
2022/06/22 02:29:08;;;;;;;12.70;8.53;;;10.60;99.90;;;;;;4858789;29;20057;-81
2022/06/22 02:31:35;;;;;;;10.67;9.03;;;10.60;99.90;;;;;;4831798;29;20099;-81
2022/06/22 02:34:01;;;;;;;12.20;9.73;;;10.60;99.90;;;;;;4849683;29;20056;-81
2022/06/22 02:36:31;;;;;;;12.83;8.90;;;10.50;99.90;;;;;;4858051;29;20037;-81
2022/06/22 02:39:01;;;;;;;11.27;8.17;;;10.50;99.90;;;;;;4865890;29;20385;-81
2022/06/22 02:44:29;;;;;;;13.00;9.37;;;10.50;99.90;;;;;;4846684;29;20045;-81
2022/06/22 02:47:10;;;;;;;12.13;8.97;;;10.40;99.90;;;;;;4875177;29;20090;-81
2022/06/22 02:49:40;;;;;;;13.00;9.13;;;10.40;99.90;;;;;;4885250;29;20038;-81
2022/06/22 02:52:10;;;;;;;11.13;8.80;;;10.40;99.90;;;;;;4877315;29;20052;-81
2022/06/22 02:54:42;;;;;;;15.73;9.30;;;10.20;99.90;;;;;;4857827;29;20049;-81
2022/06/22 02:57:46;;;;;;;13.25;8.85;;;10.10;99.90;;;;;;4865895;29;20049;-81
2022/06/22 03:00:14;;;;;;;13.67;8.93;;;10.10;99.90;;;;;;4844519;29;20105;-81
2022/06/22 03:02:41;;;;;;;10.90;9.07;;;10.10;99.90;;;;;;4841012;29;20065;-81
2022/06/22 03:05:08;;;;;;;10.70;8.80;;;10.00;99.90;;;;;;4871159;29;20045;-81
2022/06/22 03:07:40;;;;;;;12.87;8.60;;;10.00;99.90;;;;;;4875593;29;20045;-81
2022/06/22 03:10:07;;;;;;;12.02;8.70;;;10.00;99.90;;;;;;4873030;29;20077;-81
2022/06/22 03:12:33;;;;;;;13.60;9.13;;;9.90;99.90;;;;;;4869014;29;20053;-81
2022/06/22 03:15:03;;;;;;;12.30;8.87;;;9.90;99.90;;;;;;4846919;29;20116;-81
2022/06/22 03:17:34;;;;;;;13.70;8.90;;;9.80;99.90;;;;;;4858682;29;20052;-81
2022/06/22 03:20:11;;;;;;;12.90;9.57;;;9.90;99.90;;;;;;4874352;29;20477;-81
2022/06/22 03:22:47;;;;;;;12.60;9.47;;;9.80;99.90;;;;;;4848860;29;20044;-81
2022/06/22 03:25:24;;;;;;;11.83;9.33;;;9.70;99.90;;;;;;4869726;29;20095;-81
2022/06/22 03:27:54;;;;;;;12.97;10.07;;;9.70;99.90;;;;;;4883261;29;20051;-81
2022/06/22 03:30:28;;;;;;;12.60;9.63;;;9.60;99.90;;;;;;4864275;29;20068;-81
2022/06/22 03:33:13;;;;;;;12.67;9.03;;;9.70;99.90;;;;;;4864484;29;20053;-80
2022/06/22 03:35:45;;;;;;;13.20;9.53;;;9.70;99.90;;;;;;4845969;29;20739;-81
2022/06/22 03:38:19;;;;;;;14.37;10.67;;;9.80;99.90;;;;;;4863858;29;20048;-81
2022/06/22 03:41:02;;;;;;;14.13;10.33;;;10.00;99.90;;;;;;4873905;29;20040;-81
2022/06/22 03:43:53;;;;;;;15.50;10.30;;;9.90;99.90;;;;;;4865731;29;20046;-81
2022/06/22 03:46:25;;;;;;;16.57;11.70;;;9.90;99.90;;;;;;4849882;29;20053;-81
2022/06/22 03:49:08;;;;;;;16.13;10.83;;;10.00;99.90;;;;;;4852165;29;20048;-81
2022/06/22 03:51:47;;;;;;;13.83;10.30;;;10.10;99.90;;;;;;4878647;29;20509;-81
2022/06/22 03:54:18;;;;;;;16.57;11.60;;;10.20;99.90;;;;;;4872314;29;20052;-81
2022/06/22 03:56:50;;;;;;;18.02;12.35;;;10.20;99.90;;;;;;4868472;29;20033;-81
2022/06/22 03:59:16;;;;;;;18.00;11.87;;;10.20;99.90;;;;;;4864522;29;20533;-81
2022/06/22 04:01:43;;;;;;;19.77;11.40;;;10.30;99.90;;;;;;4848361;29;20128;-81
2022/06/22 04:04:09;;;;;;;18.80;12.67;;;10.30;99.90;;;;;;4854769;29;20071;-81
2022/06/22 04:06:44;;;;;;;19.43;13.37;;;10.30;99.90;;;;;;4852406;29;20046;-81
2022/06/22 04:09:19;;;;;;;21.50;15.40;;;10.40;99.90;;;;;;4837391;29;20408;-81
2022/06/22 04:11:48;;;;;;;20.07;12.60;;;10.50;99.90;;;;;;4855735;29;20045;-82
2022/06/22 04:14:36;;;;;;;20.80;14.03;;;10.50;99.90;;;;;;4844732;29;20049;-81
2022/06/22 04:17:24;;;;;;;22.70;13.90;;;10.60;99.90;;;;;;4843856;29;20442;-81
2022/06/22 04:20:49;;;;;;;23.10;15.37;;;10.60;99.90;;;;;;4841974;29;20050;-81
2022/06/22 04:23:37;;;;;;;28.87;17.07;;;10.60;99.90;;;;;;4851837;29;20107;-81
2022/06/22 04:26:30;;;;;;;31.47;18.33;;;10.80;99.90;;;;;;4867995;29;20049;-81
2022/06/22 04:29:19;;;;;;;33.20;19.00;;;11.00;99.90;;;;;;4859334;29;20057;-81
2022/06/22 04:32:22;;;;;;;29.20;18.27;;;11.00;99.90;;;;;;4837818;29;20423;-81
2022/06/22 04:35:23;;;;;;;31.23;17.87;;;11.10;99.90;;;;;;4831389;29;20057;-80
2022/06/22 04:38:10;;;;;;;32.77;18.83;;;11.20;99.90;;;;;;4854009;29;20041;-81
2022/06/22 04:40:44;;;;;;;31.40;18.30;;;11.20;99.90;;;;;;4854606;29;20041;-82
2022/06/22 04:43:10;;;;;;;28.67;16.67;;;11.30;99.90;;;;;;4857985;29;20116;-82
2022/06/22 04:45:42;;;;;;;29.93;17.77;;;11.30;99.90;;;;;;4852865;29;20045;-81
2022/06/22 04:48:26;;;;;;;29.23;17.38;;;11.40;99.90;;;;;;4856208;29;20076;-82
2022/06/22 04:50:57;;;;;;;33.73;18.37;;;11.50;99.90;;;;;;4864910;29;20069;-80
2022/06/22 04:53:53;;;;;;;29.58;16.95;;;11.60;99.90;;;;;;4869201;29;20042;-80
2022/06/22 04:56:28;;;;;;;29.87;18.17;;;11.60;99.90;;;;;;4862516;29;20053;-81
2022/06/22 04:58:55;;;;;;;27.70;17.30;;;11.60;99.90;;;;;;4863923;29;20415;-81
2022/06/22 05:01:25;;;;;;;32.57;18.23;;;11.60;99.90;;;;;;4852217;29;20733;-80
2022/06/22 05:03:56;;;;;;;27.07;18.23;;;11.60;99.90;;;;;;4839755;29;20044;-81
2022/06/22 05:06:34;;;;;;;30.53;19.00;;;11.70;99.90;;;;;;4875994;29;20126;-81
2022/06/22 05:09:33;;;;;;;34.03;18.87;;;11.70;99.90;;;;;;4853632;29;20049;-80
2022/06/22 05:12:01;;;;;;;31.83;19.17;;;11.80;99.90;;;;;;4826292;29;20061;-82
2022/06/22 05:14:30;;;;;;;30.60;18.83;;;11.80;99.90;;;;;;4861723;29;20403;-80
2022/06/22 05:17:04;;;;;;;33.43;19.70;;;11.90;99.90;;;;;;4868619;29;20381;-82
2022/06/22 05:19:44;;;;;;;31.43;19.33;;;12.00;99.90;;;;;;4893571;29;20041;-81
2022/06/22 05:22:15;;;;;;;30.67;18.60;;;12.10;99.90;;;;;;4859189;29;20045;-81
2022/06/22 05:24:45;;;;;;;31.43;18.40;;;12.20;99.90;;;;;;4827647;29;20038;-81
2022/06/22 05:27:15;;;;;;;27.43;17.33;;;12.30;99.90;;;;;;4871140;29;20067;-81
2022/06/22 05:29:54;;;;;;;31.03;17.37;;;12.40;99.90;;;;;;4849508;29;20047;-81
2022/06/22 05:32:48;;;;;;;30.10;17.80;;;12.50;99.90;;;;;;4859280;29;20128;-81
2022/06/22 05:35:23;;;;;;;23.20;15.43;;;12.60;99.90;;;;;;4860710;29;20063;-81
2022/06/22 05:37:52;;;;;;;26.57;16.53;;;12.80;99.90;;;;;;4853709;29;20044;-81
2022/06/22 05:40:21;;;;;;;24.73;16.00;;;12.90;99.90;;;;;;4855004;29;20046;-81
2022/06/22 05:42:46;;;;;;;27.57;15.67;;;13.00;99.90;;;;;;4860298;29;20083;-81
2022/06/22 05:45:22;;;;;;;25.03;15.57;;;13.10;99.90;;;;;;4831757;29;20480;-81
2022/06/22 05:47:48;;;;;;;23.17;15.47;;;13.30;99.90;;;;;;4872314;29;20052;-82
2022/06/22 05:50:36;;;;;;;24.00;14.37;;;13.50;99.90;;;;;;4872437;29;20293;-81
2022/06/22 05:53:17;;;;;;;22.53;14.07;;;13.60;99.90;;;;;;4874409;29;20056;-82
2022/06/22 05:56:03;;;;;;;22.10;15.00;;;13.80;99.90;;;;;;4865587;29;20071;-82
2022/06/22 05:58:41;;;;;;;22.27;14.70;;;13.90;99.90;;;;;;4866722;29;20053;-81
2022/06/22 06:01:24;;;;;;;22.83;14.13;;;14.10;99.90;;;;;;4865411;29;20051;-82
2022/06/22 06:03:56;;;;;;;20.53;12.30;;;14.30;99.90;;;;;;4840362;29;20052;-81
2022/06/22 06:06:28;;;;;;;23.20;12.50;;;14.50;99.90;;;;;;4865200;29;20418;-81
2022/06/22 06:09:00;;;;;;;19.80;12.95;;;14.70;99.90;;;;;;4849513;29;20376;-81
2022/06/22 06:11:40;;;;;;;21.33;13.87;;;14.80;99.90;;;;;;4833865;29;20033;-82
2022/06/22 06:14:12;;;;;;;18.37;11.87;;;15.00;99.90;;;;;;4861770;29;20045;-81
2022/06/22 06:16:51;;;;;;;18.40;12.40;;;15.20;99.90;;;;;;4859866;29;20053;-82
2022/06/22 06:19:21;;;;;;;13.70;9.77;;;15.40;99.90;;;;;;4844509;29;20038;-81
2022/06/22 06:21:53;;;;;;;10.93;7.70;;;15.60;99.90;;;;;;4885919;29;20418;-81
2022/06/22 06:24:27;;;;;;;11.85;6.57;;;15.70;99.90;;;;;;4866867;29;20071;-82
2022/06/22 06:29:53;;;;;;;8.63;6.00;;;16.00;99.90;;;;;;4852030;29;20084;-81
2022/06/22 06:32:19;;;;;;;11.38;5.60;;;16.20;99.90;;;;;;4865363;29;20045;-81
2022/06/22 06:34:51;;;;;;;10.93;5.32;;;16.30;99.90;;;;;;4841160;29;20113;-81
2022/06/22 06:37:26;;;;;;;7.50;4.07;;;16.50;99.90;;;;;;4856573;29;20045;-81
2022/06/22 06:39:56;;;;;;;4.82;3.30;;;16.60;99.90;;;;;;4835113;29;20044;-81
2022/06/22 06:42:33;;;;;;;8.30;4.80;;;16.80;99.90;;;;;;4864950;29;20078;-82
2022/06/22 06:45:01;;;;;;;7.95;4.78;;;16.80;99.90;;;;;;4862217;29;20100;-82
2022/06/22 06:47:34;;;;;;;3.92;3.40;;;16.90;99.90;;;;;;4849102;29;20037;-81
2022/06/22 06:50:02;;;;;;;9.63;3.40;;;17.00;99.90;;;;;;4860332;29;20045;-81
2022/06/22 06:52:51;;;;;;;10.27;4.53;;;17.20;99.90;;;;;;4867472;29;20080;-81
2022/06/22 06:55:38;;;;;;;11.10;5.15;;;17.40;99.90;;;;;;4846725;29;20052;-82
2022/06/22 06:58:40;;;;;;;7.15;3.95;;;17.60;99.90;;;;;;4852457;29;20064;-82
2022/06/22 07:01:15;;;;;;;5.53;4.15;;;17.70;99.90;;;;;;4838795;29;20049;-82
2022/06/22 07:03:41;;;;;;;9.13;4.32;;;17.90;99.90;;;;;;4854177;29;20037;-82
2022/06/22 07:06:09;;;;;;;6.03;3.90;;;18.10;99.90;;;;;;4849586;29;20133;-82
2022/06/22 07:08:43;;;;;;;7.68;4.82;;;18.30;99.90;;;;;;4849408;29;20052;-82
2022/06/22 07:11:31;;;;;;;7.80;4.60;;;18.50;99.90;;;;;;4846354;29;20052;-82
2022/06/22 07:14:22;;;;;;;10.88;5.45;;;18.60;99.90;;;;;;4863965;29;20053;-81
2022/06/22 07:16:52;;;;;;;9.37;5.67;;;18.80;99.90;;;;;;4876618;29;20119;-82
2022/06/22 07:19:41;;;;;;;9.82;5.55;;;18.90;99.90;;;;;;4895555;29;20315;-81
2022/06/22 07:22:25;;;;;;;11.40;5.07;;;19.00;99.90;;;;;;4848302;29;20048;-81
2022/06/22 07:25:01;;;;;;;8.30;5.13;;;19.00;99.90;;;;;;4879425;29;20051;-82
2022/06/22 07:27:53;;;;;;;8.90;4.60;;;19.20;99.90;;;;;;4865683;29;20112;-81
2022/06/22 07:30:33;;;;;;;12.05;5.93;;;19.30;99.90;;;;;;4854350;29;20133;-81
2022/06/22 07:33:06;;;;;;;9.93;5.57;;;19.30;99.90;;;;;;4835355;29;20129;-81
2022/06/22 07:35:40;;;;;;;9.75;4.90;;;19.20;99.90;;;;;;4861722;29;20049;-81
2022/06/22 07:38:09;;;;;;;9.63;4.63;;;19.30;99.90;;;;;;4866032;29;21446;-82
2022/06/22 07:40:37;;;;;;;9.00;5.25;;;19.50;99.90;;;;;;4865296;29;20476;-82
2022/06/22 07:43:04;;;;;;;9.00;5.68;;;19.50;99.90;;;;;;4850842;29;20045;-81
2022/06/22 07:45:30;;;;;;;7.70;5.03;;;19.50;99.90;;;;;;4861860;29;20037;-79
2022/06/22 07:48:10;;;;;;;11.45;5.63;;;19.60;99.90;;;;;;4854822;29;20372;-80
2022/06/22 07:50:44;;;;;;;10.85;4.53;;;19.80;99.90;;;;;;4859542;29;20050;-79
2022/06/22 07:53:38;;;;;;;11.38;4.82;;;19.90;99.90;;;;;;4858906;29;20053;-79
2022/06/22 07:56:24;;;;;;;6.65;5.05;;;20.10;99.90;;;;;;4865757;29;20061;-80
2022/06/22 07:58:55;;;;;;;7.65;4.82;;;20.10;99.90;;;;;;4862746;29;20051;-80
2022/06/22 08:01:29;;;;;;;10.53;4.90;;;20.10;99.90;;;;;;4872024;29;20127;-80
2022/06/22 08:04:17;;;;;;;8.63;4.60;;;20.30;99.90;;;;;;4859625;29;20041;-80
2022/06/22 08:07:09;;;;;;;5.57;4.53;;;20.40;99.90;;;;;;4854013;29;20040;-80
2022/06/22 08:09:52;;;;;;;8.63;5.05;;;20.50;99.90;;;;;;4858006;29;20076;-80
2022/06/22 08:12:28;;;;;;;8.57;4.70;;;20.50;99.90;;;;;;4837382;29;20053;-80
2022/06/22 08:14:54;;;;;;;7.78;4.63;;;20.60;99.90;;;;;;4846566;29;20516;-79
2022/06/22 08:17:28;;;;;;;7.80;4.13;;;20.70;99.90;;;;;;4839548;29;20056;-80
2022/06/22 08:19:54;;;;;;;6.50;4.32;;;20.80;99.90;;;;;;4855603;29;20901;-81
2022/06/22 08:22:21;;;;;;;7.18;3.55;;;20.70;99.90;;;;;;4856658;29;20048;-79
2022/06/22 08:24:50;;;;;;;8.68;4.15;;;20.60;99.90;;;;;;4874372;29;20119;-80
2022/06/22 08:27:22;;;;;;;8.20;4.22;;;20.50;99.90;;;;;;4871348;29;20519;-80
2022/06/22 08:29:49;;;;;;;7.93;4.57;;;20.40;99.90;;;;;;4862183;29;20051;-81
2022/06/22 08:32:30;;;;;;;9.13;4.80;;;20.40;99.90;;;;;;4847368;29;20060;-80
2022/06/22 08:35:07;;;;;;;6.90;5.00;;;20.40;99.90;;;;;;4854395;29;20112;-81
2022/06/22 08:37:43;;;;;;;5.60;4.32;;;20.40;99.90;;;;;;4851588;29;20139;-80
2022/06/22 08:40:28;;;;;;;8.25;4.65;;;20.60;99.90;;;;;;4867880;29;20060;-80
2022/06/22 08:43:03;;;;;;;6.47;3.55;;;20.60;99.90;;;;;;4870061;29;20044;-80
2022/06/22 08:45:44;;;;;;;5.22;3.67;;;20.50;99.90;;;;;;4862224;29;20044;-80
2022/06/22 08:48:35;;;;;;;7.43;3.58;;;20.50;99.90;;;;;;4841924;29;20600;-80
2022/06/22 08:51:27;;;;;;;5.70;3.70;;;20.80;99.90;;;;;;4863496;29;20433;-79
2022/06/22 08:54:20;;;;;;;7.28;4.47;;;21.00;99.90;;;;;;4851591;29;20076;-81
2022/06/22 08:57:02;;;;;;;6.68;3.47;;;20.90;99.90;;;;;;4852178;29;20155;-80
2022/06/22 08:59:55;;;;;;;5.10;3.83;;;20.80;99.00;;;;;;4849164;29;20049;-79
2022/06/22 09:02:49;;;;;;;7.47;4.40;;;20.80;99.90;;;;;;4840569;29;20396;-81
2022/06/22 09:05:24;;;;;;;7.55;4.72;;;20.90;99.90;;;;;;4841089;29;20057;-80
2022/06/22 09:07:49;;;;;;;6.38;4.13;;;21.00;99.90;;;;;;4872663;29;20045;-82
2022/06/22 09:10:34;;;;;;;6.90;3.83;;;21.10;99.90;;;;;;4879280;29;20052;-79
2022/06/22 09:13:10;;;;;;;5.55;3.60;;;21.00;99.90;;;;;;4880308;29;20053;-80
2022/06/22 09:15:47;;;;;;;5.85;4.60;;;21.00;99.90;;;;;;4869989;29;20924;-80
2022/06/22 09:18:26;;;;;;;7.82;4.43;;;21.00;99.90;;;;;;4849798;29;20044;-81
2022/06/22 09:21:10;;;;;;;7.07;4.40;;;20.80;99.90;;;;;;4868927;29;20496;-81
2022/06/22 09:24:13;;;;;;;6.47;3.88;;;20.90;99.80;;;;;;4855437;29;20119;-81
2022/06/22 09:26:57;;;;;;;10.13;4.22;;;21.00;94.60;;;;;;4875192;29;20084;-81
2022/06/22 09:29:40;;;;;;;7.57;4.80;;;21.10;99.90;;;;;;4874362;29;20057;-81
2022/06/22 09:32:30;;;;;;;7.10;4.57;;;21.20;99.90;;;;;;4843594;29;20136;-80
2022/06/22 09:35:02;;;;;;;6.18;4.97;;;21.30;99.90;;;;;;4854716;29;20045;-80
2022/06/22 09:37:37;;;;;;;4.70;4.05;;;21.40;99.90;;;;;;4858766;29;20144;-81
2022/06/22 09:40:26;;;;;;;9.25;4.50;;;21.50;99.90;;;;;;4868163;29;20135;-81
2022/06/22 09:43:15;;;;;;;8.77;4.40;;;21.50;98.20;;;;;;4862839;29;20410;-80
2022/06/22 09:45:52;;;;;;;10.13;5.25;;;21.60;97.00;;;;;;4859755;29;20041;-81
2022/06/22 09:48:51;;;;;;;7.60;5.07;;;21.70;99.90;;;;;;4846455;29;20041;-81
2022/06/22 09:51:31;;;;;;;8.05;5.18;;;21.80;92.80;;;;;;4847418;29;20691;-80
2022/06/22 09:56:19;;;;;;;8.48;4.93;;;21.90;95.80;;;;;;4860690;29;20044;-81
2022/06/22 09:57:18;;;;;;;9.77;5.78;;;22.10;97.70;;;;;;4851011;29;20060;-82
2022/06/22 10:00:03;;;;;;;8.75;5.50;;;22.30;99.90;;;;;;4863547;29;20041;-81
2022/06/22 10:02:48;;;;;;;13.50;5.90;;;22.40;99.90;;;;;;4840626;29;20041;-82
2022/06/22 10:05:38;;;;;;;10.55;6.32;;;22.50;99.80;;;;;;4848731;29;20044;-81
2022/06/22 10:08:38;;;;;;;8.07;4.80;;;22.50;92.80;;;;;;4863667;29;20088;-82
2022/06/22 10:11:36;;;;;;;7.00;4.60;;;22.60;94.70;;;;;;4862024;29;20045;-82
2022/06/22 10:14:36;;;;;;;8.40;5.65;;;22.80;97.60;;;;;;4881904;29;20048;-81
2022/06/22 10:17:24;;;;;;;7.85;4.30;;;23.10;95.30;;;;;;4858927;29;20056;-81
2022/06/22 10:19:53;;;;;;;6.75;4.80;;;23.00;92.40;;;;;;4877883;29;20173;-81
2022/06/22 10:22:48;;;;;;;6.85;4.35;;;23.00;97.00;;;;;;4857214;29;20598;-82
2022/06/22 10:26:04;;;;;;;9.68;4.20;;;23.20;92.90;;;;;;4839332;29;20045;-81
2022/06/22 10:28:29;;;;;;;6.32;3.38;;;23.40;80.80;;;;;;4875357;29;20402;-82
2022/06/22 10:31:22;;;;;;;9.02;3.72;;;23.60;89.20;;;;;;4887599;29;20076;-81
2022/06/22 10:34:27;;;;;;;8.27;4.72;;;23.70;79.40;;;;;;4874920;29;20657;-81
2022/06/22 10:37:30;;;;;;;5.25;4.13;;;23.70;88.20;;;;;;4863073;29;20567;-81
2022/06/22 10:39:59;;;;;;;5.25;3.67;;;23.40;80.30;;;;;;4861454;29;20059;-81
2022/06/22 10:45:32;;;;;;;5.72;3.42;;;23.10;80.60;;;;;;4861588;29;20068;-82
2022/06/22 10:48:16;;;;;;;5.32;3.45;;;23.40;84.60;;;;;;4861242;29;20652;-81
2022/06/22 10:51:10;;;;;;;10.00;3.85;;;23.60;76.90;;;;;;4876541;29;20135;-81
2022/06/22 10:54:13;;;;;;;6.20;3.30;;;23.90;74.80;;;;;;4860215;29;20106;-81
2022/06/22 10:57:05;;;;;;;6.28;3.67;;;24.10;77.50;;;;;;4859886;29;20044;-82
2022/06/22 11:00:02;;;;;;;4.38;3.45;;;24.40;69.60;;;;;;4838773;29;20057;-81
2022/06/22 11:02:51;;;;;;;6.13;4.10;;;24.50;70.20;;;;;;4860557;29;20040;-81
2022/06/22 11:05:48;;;;;;;5.53;3.97;;;24.40;68.80;;;;;;4859507;29;20066;-81
2022/06/22 11:08:49;;;;;;;5.93;3.97;;;24.10;68.40;;;;;;4843088;29;20049;-81
2022/06/22 11:11:45;;;;;;;5.65;3.63;;;24.00;76.00;;;;;;4845888;29;20056;-81
2022/06/22 11:14:35;;;;;;;4.90;3.67;;;24.00;71.40;;;;;;4860290;29;20059;-82
2022/06/22 11:17:23;;;;;;;6.53;3.70;;;24.20;72.70;;;;;;4845315;29;20045;-82
2022/06/22 11:20:15;;;;;;;5.60;4.07;;;24.50;73.00;;;;;;4874200;29;20368;-82
2022/06/22 11:22:48;;;;;;;10.07;4.57;;;24.70;76.40;;;;;;4877770;29;20041;-81
2022/06/22 11:31:58;;;;;;;5.72;3.78;;;25.00;72.60;;;;;;4881575;29;20088;-82
2022/06/22 11:35:02;;;;;;;8.07;3.97;;;25.10;74.10;;;;;;4846615;29;20597;-81
2022/06/22 11:38:06;;;;;;;5.38;3.22;;;25.10;69.60;;;;;;4871408;29;20083;-81
2022/06/22 11:40:46;;;;;;;7.90;3.38;;;25.30;66.00;;;;;;4863976;29;20132;-81
2022/06/22 11:43:46;;;;;;;6.07;3.17;;;25.40;64.90;;;;;;4845844;29;20049;-82
2022/06/22 11:46:18;;;;;;;4.00;3.00;;;25.50;67.10;;;;;;4868743;29;20041;-82
2022/06/22 11:49:21;;;;;;;6.78;4.15;;;25.70;64.80;;;;;;4855712;29;20612;-81
2022/06/22 11:51:56;;;;;;;5.80;3.78;;;25.50;59.00;;;;;;4849601;29;20128;-82
2022/06/22 11:54:43;;;;;;;4.95;3.30;;;25.40;62.70;;;;;;4848466;29;20137;-82
2022/06/22 11:57:27;;;;;;;5.85;3.40;;;25.50;64.90;;;;;;4876016;29;20045;-82
2022/06/22 12:00:20;;;;;;;7.65;3.30;;;25.50;62.80;;;;;;4847585;29;20037;-81
2022/06/22 12:03:22;;;;;;;7.82;3.50;;;25.70;64.90;;;;;;4872549;29;20471;-82
2022/06/22 12:06:03;;;;;;;;;;;25.70;62.40;;;;;;4836251;29;20129;-83
2022/06/22 12:08:59;;;;;;;7.45;3.63;;;25.80;57.30;;;;;;4859939;29;19926;-83
2022/06/22 12:11:32;;;;;;;4.60;3.15;;;26.00;61.90;;;;;;4853882;29;20049;-82
2022/06/22 12:17:19;;;;;;;5.57;3.33;;;26.20;60.10;;;;;;4862563;29;20181;-81
2022/06/22 12:20:06;;;;;;;5.68;3.15;;;26.30;61.60;;;;;;4851923;29;20044;-81
2022/06/22 12:22:57;;;;;;;5.88;3.80;;;26.50;60.00;;;;;;4878037;29;20102;-82
2022/06/22 12:25:38;;;;;;;9.10;4.20;;;26.50;59.70;;;;;;4840501;29;20045;-82
2022/06/22 12:28:24;;;;;;;6.13;3.80;;;26.50;58.90;;;;;;4853373;29;20127;-82
2022/06/22 12:31:19;;;;;;;6.97;3.70;;;26.50;59.70;;;;;;4864558;29;20049;-81
2022/06/22 12:34:04;;;;;;;6.45;3.63;;;26.30;59.30;;;;;;4861800;29;20085;-82
2022/06/22 12:36:45;;;;;;;5.03;2.80;;;26.10;60.90;;;;;;4869468;29;20082;-81
2022/06/22 12:39:34;;;;;;;5.75;2.83;;;26.20;60.20;;;;;;4873350;29;20116;-82
2022/06/22 12:42:23;;;;;;;4.93;3.25;;;26.30;58.40;;;;;;4841233;29;20140;-82
2022/06/22 12:45:13;;;;;;;4.88;2.92;;;26.40;57.50;;;;;;4824286;29;20084;-82
2022/06/22 12:48:12;;;;;;;3.10;2.47;;;26.50;53.70;;;;;;4851097;29;20045;-82
2022/06/22 12:51:15;;;;;;;5.57;3.70;;;26.50;53.70;;;;;;4857630;29;20089;-81
2022/06/22 12:53:55;;;;;;;6.50;5.45;;;26.40;55.40;;;;;;4873075;29;20045;-82
2022/06/22 12:56:46;;;;;;;6.07;3.63;;;26.00;57.10;;;;;;4870466;29;20504;-82
2022/06/22 12:59:33;;;;;;;4.40;3.47;;;25.90;58.20;;;;;;4841764;29;20060;-82
2022/06/22 13:02:02;;;;;;;7.60;6.10;;;26.10;60.30;;;;;;4871596;29;20070;-80
2022/06/22 13:04:33;;;;;;;7.20;5.55;;;25.80;58.40;;;;;;4848880;29;20084;-81
2022/06/22 13:07:09;;;;;;;;;;;25.90;60.30;;;;;;4873259;29;20037;-81
2022/06/22 13:09:35;;;;;;;8.20;5.57;;;25.50;59.70;;;;;;4882050;29;19920;-80
2022/06/22 13:12:03;;;;;;;8.98;5.32;;;25.30;60.90;;;;;;4859335;29;20044;-82
2022/06/22 13:14:40;;;;;;;8.77;5.32;;;25.20;60.60;;;;;;4864941;29;20044;-80
2022/06/22 13:17:20;;;;;;;7.25;4.60;;;25.30;60.90;;;;;;4863483;29;20119;-81
2022/06/22 13:20:00;;;;;;;8.70;5.43;;;25.50;61.90;;;;;;4868295;29;20045;-80
2022/06/22 13:22:44;;;;;;;8.38;5.00;;;25.30;60.50;;;;;;4860852;29;20051;-81
2022/06/22 13:25:35;;;;;;;8.57;5.78;;;25.30;59.70;;;;;;4844825;29;20499;-80
2022/06/22 13:28:26;;;;;;;9.15;6.18;;;25.00;58.20;;;;;;4841639;29;20088;-80
2022/06/22 13:30:58;;;;;;;9.88;7.10;;;25.00;61.10;;;;;;4861134;29;20089;-81
2022/06/22 13:33:45;;;;;;;6.22;5.50;;;25.00;60.10;;;;;;4839288;29;20129;-82
2022/06/22 13:36:56;;;;;;;13.75;5.88;;;25.20;63.20;;;;;;4836301;29;20042;-82
2022/06/22 13:39:48;;;;;;;6.40;5.45;;;25.40;64.50;;;;;;4822841;29;20057;-82
2022/06/22 13:42:35;;;;;;;8.55;5.90;;;25.70;60.60;;;;;;4861338;29;20112;-81
2022/06/22 13:45:25;;;;;;;11.05;5.85;;;25.60;59.90;;;;;;4845409;29;20100;-82
2022/06/22 13:47:54;;;;;;;10.27;5.32;;;25.70;60.10;;;;;;4858732;29;20040;-79
2022/06/22 13:50:52;;;;;;;9.20;5.03;;;25.90;58.50;;;;;;4858564;29;20093;-81
2022/06/22 13:53:33;;;;;;;8.73;5.05;;;25.70;57.60;;;;;;4850376;29;20042;-80
2022/06/22 13:56:39;;;;;;;10.63;5.78;;;25.50;59.00;;;;;;4850339;29;20053;-80
2022/06/22 13:59:23;;;;;;;16.92;6.70;;;25.50;60.30;;;;;;4838514;29;20050;-80
2022/06/22 14:02:21;;;;;;;8.07;5.63;;;25.40;59.10;;;;;;4872654;29;20123;-80
2022/06/22 14:05:14;;;;;;;8.20;5.55;;;25.40;58.50;;;;;;4867910;29;20079;-80
2022/06/22 14:08:20;;;;;;;7.80;4.63;;;25.60;61.10;;;;;;4851954;29;20140;-80
2022/06/22 14:11:02;;;;;;;7.15;5.00;;;25.70;60.40;;;;;;4861629;29;20053;-81
2022/06/22 14:13:52;;;;;;;8.63;5.18;;;25.90;63.10;;;;;;4859906;29;20747;-81